createdAt,value
2022-12-17T00:00:26.035Z,21.19
2022-12-17T00:01:22.666Z,21.18
2022-12-17T00:02:21.645Z,21.20
2022-12-17T00:03:21.786Z,21.19
2022-12-17T00:04:21.624Z,21.19
2022-12-17T00:05:21.566Z,21.17
2022-12-17T00:06:21.551Z,21.17
2022-12-17T00:07:21.527Z,21.16
2022-12-17T00:08:21.516Z,21.17
2022-12-17T00:09:21.753Z,21.17
2022-12-17T00:10:21.480Z,21.17
2022-12-17T00:11:21.543Z,21.16
2022-12-17T00:12:21.448Z,21.16
2022-12-17T00:13:21.557Z,21.16
2022-12-17T00:14:21.413Z,21.14
2022-12-17T00:15:21.420Z,21.12
2022-12-17T00:16:21.595Z,21.10
2022-12-17T00:17:21.396Z,21.07
2022-12-17T00:18:21.381Z,21.04
2022-12-17T00:19:21.570Z,21.03
2022-12-17T00:20:21.346Z,21.03
2022-12-17T00:21:21.335Z,21.01
2022-12-17T00:22:21.322Z,20.99
2022-12-17T00:23:21.723Z,20.98
2022-12-17T00:24:21.313Z,20.97
2022-12-17T00:25:21.411Z,20.96
2022-12-17T00:26:21.260Z,20.96
2022-12-17T00:27:21.270Z,20.97
2022-12-17T00:28:21.210Z,20.99
2022-12-17T00:29:21.345Z,21.01
2022-12-17T00:30:21.173Z,21.02
2022-12-17T00:31:21.309Z,21.04
2022-12-17T00:32:21.164Z,21.05
2022-12-17T00:33:21.171Z,21.05
2022-12-17T00:34:21.294Z,21.04
2022-12-17T00:35:21.266Z,21.02
2022-12-17T00:36:21.122Z,21.01
2022-12-17T00:37:21.133Z,21.02
2022-12-17T00:38:21.391Z,21.01
2022-12-17T00:39:21.096Z,20.99
2022-12-17T00:40:21.082Z,21.01
2022-12-17T00:41:21.088Z,20.99
2022-12-17T00:42:21.016Z,21.00
2022-12-17T00:43:21.080Z,21.01
2022-12-17T00:44:21.016Z,21.00
2022-12-17T00:45:21.024Z,21.01
2022-12-17T00:46:21.122Z,20.99
2022-12-17T00:47:21.012Z,20.99
2022-12-17T00:48:20.974Z,20.99
2022-12-17T00:49:21.006Z,20.98
2022-12-17T00:50:20.947Z,20.98
2022-12-17T00:51:20.973Z,20.99
2022-12-17T00:52:20.959Z,20.97
2022-12-17T00:53:20.972Z,20.97
2022-12-17T00:54:20.919Z,20.97
2022-12-17T00:55:20.953Z,20.97
2022-12-17T00:56:20.906Z,20.97
2022-12-17T00:57:20.927Z,20.97
2022-12-17T00:58:20.865Z,20.96
2022-12-17T00:59:20.912Z,20.96
2022-12-17T01:00:20.865Z,20.97
2022-12-17T01:01:21.046Z,20.95
2022-12-17T01:02:20.960Z,20.95
2022-12-17T01:03:20.864Z,20.94
2022-12-17T01:04:20.860Z,20.94
2022-12-17T01:05:20.869Z,20.93
2022-12-17T01:06:20.829Z,20.92
2022-12-17T01:07:20.828Z,20.92
2022-12-17T01:08:20.808Z,20.92
2022-12-17T01:09:20.815Z,20.92
2022-12-17T01:10:20.824Z,20.93
2022-12-17T01:11:20.862Z,20.92
2022-12-17T01:12:20.794Z,20.93
2022-12-17T01:13:20.811Z,20.92
2022-12-17T01:14:20.780Z,20.92
2022-12-17T01:15:20.859Z,20.91
2022-12-17T01:16:20.799Z,20.91
2022-12-17T01:17:20.736Z,20.91
2022-12-17T01:18:20.716Z,20.91
2022-12-17T01:19:20.725Z,20.91
2022-12-17T01:20:20.712Z,20.89
2022-12-17T01:21:20.717Z,20.89
2022-12-17T01:22:20.694Z,20.89
2022-12-17T01:23:20.697Z,20.89
2022-12-17T01:24:20.686Z,20.89
2022-12-17T01:25:20.662Z,20.88
2022-12-17T01:26:20.656Z,20.89
2022-12-17T01:27:20.643Z,20.88
2022-12-17T01:28:20.637Z,20.90
2022-12-17T01:29:20.643Z,20.88
2022-12-17T01:30:20.613Z,20.87
2022-12-17T01:31:20.687Z,20.87
2022-12-17T01:32:20.600Z,20.86
2022-12-17T01:33:20.604Z,20.86
2022-12-17T01:34:20.606Z,20.86
2022-12-17T01:35:20.620Z,20.86
2022-12-17T01:36:20.575Z,20.87
2022-12-17T01:37:20.586Z,20.86
2022-12-17T01:38:20.722Z,20.86
2022-12-17T01:39:20.610Z,20.85
2022-12-17T01:40:20.526Z,20.86
2022-12-17T01:41:20.544Z,20.85
2022-12-17T01:42:20.504Z,20.85
2022-12-17T01:43:20.525Z,20.86
2022-12-17T01:44:20.492Z,20.84
2022-12-17T01:45:20.505Z,20.83
2022-12-17T01:46:20.524Z,20.83
2022-12-17T01:47:20.470Z,20.83
2022-12-17T01:48:20.461Z,20.82
2022-12-17T01:49:20.463Z,20.82
2022-12-17T01:50:20.411Z,20.81
2022-12-17T01:51:20.420Z,20.81
2022-12-17T01:52:20.409Z,20.81
2022-12-17T01:53:20.433Z,20.81
2022-12-17T01:54:20.399Z,20.80
2022-12-17T01:55:20.378Z,20.80
2022-12-17T01:56:20.526Z,20.80
2022-12-17T01:57:23.058Z,20.81
2022-12-17T01:58:20.332Z,20.79
2022-12-17T01:59:20.362Z,20.80
2022-12-17T02:00:20.333Z,20.80
2022-12-17T02:01:20.634Z,20.79
2022-12-17T02:02:20.404Z,20.79
2022-12-17T02:03:20.419Z,20.78
2022-12-17T02:04:20.317Z,20.77
2022-12-17T02:05:20.369Z,20.77
2022-12-17T02:06:20.281Z,20.78
2022-12-17T02:07:20.348Z,20.77
2022-12-17T02:08:20.294Z,20.77
2022-12-17T02:09:20.305Z,20.77
2022-12-17T02:10:20.277Z,20.76
2022-12-17T02:11:20.277Z,20.75
2022-12-17T02:12:20.271Z,20.75
2022-12-17T02:13:20.265Z,20.75
2022-12-17T02:14:20.231Z,20.76
2022-12-17T02:15:20.266Z,20.74
2022-12-17T02:16:20.313Z,20.74
2022-12-17T02:17:20.228Z,20.75
2022-12-17T02:18:20.222Z,20.74
2022-12-17T02:19:20.237Z,20.72
2022-12-17T02:20:20.225Z,20.73
2022-12-17T02:21:20.215Z,20.73
2022-12-17T02:22:20.240Z,20.73
2022-12-17T02:23:20.345Z,20.73
2022-12-17T02:24:20.192Z,20.73
2022-12-17T02:25:20.463Z,20.73
2022-12-17T02:26:20.331Z,20.73
2022-12-17T02:27:20.349Z,20.73
2022-12-17T02:28:20.412Z,20.73
2022-12-17T02:29:20.344Z,20.73
2022-12-17T02:30:20.287Z,20.73
2022-12-17T02:31:20.321Z,20.72
2022-12-17T02:32:20.180Z,20.71
2022-12-17T02:33:20.144Z,20.72
2022-12-17T02:34:20.135Z,20.71
2022-12-17T02:35:20.200Z,20.72
2022-12-17T02:36:20.144Z,20.70
2022-12-17T02:37:20.112Z,20.71
2022-12-17T02:38:20.103Z,20.71
2022-12-17T02:39:20.167Z,20.70
2022-12-17T02:40:20.073Z,20.69
2022-12-17T02:41:20.106Z,20.69
2022-12-17T02:42:20.104Z,20.70
2022-12-17T02:43:20.100Z,20.69
2022-12-17T02:44:20.065Z,20.68
2022-12-17T02:45:20.088Z,20.67
2022-12-17T02:46:20.181Z,20.68
2022-12-17T02:47:20.111Z,20.68
2022-12-17T02:48:20.095Z,20.68
2022-12-17T02:49:20.084Z,20.67
2022-12-17T02:50:20.072Z,20.66
2022-12-17T02:51:20.136Z,20.67
2022-12-17T02:52:20.090Z,20.67
2022-12-17T02:53:20.121Z,20.66
2022-12-17T02:54:20.078Z,20.66
2022-12-17T02:55:20.127Z,20.66
2022-12-17T02:56:20.067Z,20.66
2022-12-17T02:57:20.101Z,20.65
2022-12-17T02:58:20.068Z,20.65
2022-12-17T02:59:20.092Z,20.64
2022-12-17T03:00:20.081Z,20.64
2022-12-17T03:01:20.130Z,20.64
2022-12-17T03:02:20.174Z,20.63
2022-12-17T03:03:20.138Z,20.63
2022-12-17T03:04:20.046Z,20.64
2022-12-17T03:05:44.080Z,20.64
2022-12-17T03:06:21.072Z,20.64
2022-12-17T03:07:20.013Z,20.63
2022-12-17T03:08:20.063Z,20.64
2022-12-17T03:09:20.028Z,20.64
2022-12-17T03:10:20.094Z,20.65
2022-12-17T03:11:20.011Z,20.63
2022-12-17T03:12:20.081Z,20.63
2022-12-17T03:13:20.042Z,20.62
2022-12-17T03:14:20.064Z,20.62
2022-12-17T03:15:20.148Z,20.62
2022-12-17T03:16:20.106Z,20.63
2022-12-17T03:17:20.323Z,20.62
2022-12-17T03:18:20.019Z,20.62
2022-12-17T03:19:19.974Z,20.61
2022-12-17T03:20:20.039Z,20.60
2022-12-17T03:21:20.003Z,20.60
2022-12-17T03:22:20.027Z,20.60
2022-12-17T03:23:19.987Z,20.59
2022-12-17T03:24:19.991Z,20.59
2022-12-17T03:25:19.941Z,20.58
2022-12-17T03:26:19.987Z,20.58
2022-12-17T03:27:19.987Z,20.58
2022-12-17T03:28:19.990Z,20.58
2022-12-17T03:29:19.959Z,20.57
2022-12-17T03:30:20.105Z,20.57
2022-12-17T03:31:20.011Z,20.57
2022-12-17T03:32:20.010Z,20.55
2022-12-17T03:33:19.948Z,20.57
2022-12-17T03:34:20.150Z,20.56
2022-12-17T03:35:19.948Z,20.56
2022-12-17T03:36:19.960Z,20.56
2022-12-17T03:37:19.917Z,20.56
2022-12-17T03:38:19.992Z,20.55
2022-12-17T03:39:19.908Z,20.56
2022-12-17T03:40:20.018Z,20.55
2022-12-17T03:41:19.921Z,20.56
2022-12-17T03:42:19.953Z,20.57
2022-12-17T03:43:19.898Z,20.55
2022-12-17T03:44:19.943Z,20.55
2022-12-17T03:45:19.883Z,20.54
2022-12-17T03:46:19.988Z,20.54
2022-12-17T03:47:19.905Z,20.55
2022-12-17T03:48:19.900Z,20.54
2022-12-17T03:49:19.873Z,20.54
2022-12-17T03:50:20.161Z,20.54
2022-12-17T03:51:19.868Z,20.54
2022-12-17T03:52:19.884Z,20.54
2022-12-17T03:53:19.935Z,20.53
2022-12-17T03:54:19.855Z,20.53
2022-12-17T03:55:19.868Z,20.54
2022-12-17T03:56:19.871Z,20.53
2022-12-17T03:57:19.873Z,20.52
2022-12-17T03:58:19.847Z,20.52
2022-12-17T03:59:19.827Z,20.50
2022-12-17T04:00:20.016Z,20.50
2022-12-17T04:01:19.925Z,20.50
2022-12-17T04:02:20.118Z,20.49
2022-12-17T04:03:19.840Z,20.50
2022-12-17T04:04:19.826Z,20.50
2022-12-17T04:05:20.540Z,20.50
2022-12-17T04:06:19.805Z,20.49
2022-12-17T04:07:19.856Z,20.51
2022-12-17T04:08:19.826Z,20.52
2022-12-17T04:09:19.792Z,20.52
2022-12-17T04:10:19.786Z,20.51
2022-12-17T04:11:19.760Z,20.51
2022-12-17T04:12:19.846Z,20.50
2022-12-17T04:13:19.790Z,20.50
2022-12-17T04:14:19.767Z,20.49
2022-12-17T04:15:19.771Z,20.49
2022-12-17T04:16:19.735Z,20.49
2022-12-17T04:17:19.711Z,20.50
2022-12-17T04:18:19.729Z,20.49
2022-12-17T04:19:19.711Z,20.48
2022-12-17T04:20:19.709Z,20.48
2022-12-17T04:21:19.682Z,20.47
2022-12-17T04:22:19.687Z,20.47
2022-12-17T04:23:19.679Z,20.46
2022-12-17T04:24:19.678Z,20.46
2022-12-17T04:25:19.762Z,20.46
2022-12-17T04:26:19.699Z,20.47
2022-12-17T04:27:19.696Z,20.45
2022-12-17T04:28:19.895Z,20.46
2022-12-17T04:29:19.642Z,20.46
2022-12-17T04:30:19.698Z,20.47
2022-12-17T04:31:19.782Z,20.45
2022-12-17T04:32:19.660Z,20.45
2022-12-17T04:33:19.632Z,20.45
2022-12-17T04:34:19.689Z,20.46
2022-12-17T04:35:19.647Z,20.44
2022-12-17T04:36:19.653Z,20.45
2022-12-17T04:37:19.650Z,20.45
2022-12-17T04:38:19.887Z,20.45
2022-12-17T04:39:19.619Z,20.44
2022-12-17T04:40:19.784Z,20.44
2022-12-17T04:41:19.585Z,20.44
2022-12-17T04:42:19.627Z,20.42
2022-12-17T04:43:19.582Z,20.43
2022-12-17T04:44:19.599Z,20.42
2022-12-17T04:45:19.587Z,20.42
2022-12-17T04:46:19.846Z,20.43
2022-12-17T04:47:19.574Z,20.44
2022-12-17T04:48:19.576Z,20.44
2022-12-17T04:49:19.565Z,20.44
2022-12-17T04:50:19.579Z,20.43
2022-12-17T04:51:19.675Z,20.42
2022-12-17T04:52:19.552Z,20.43
2022-12-17T04:53:19.511Z,20.44
2022-12-17T04:54:19.790Z,20.44
2022-12-17T04:55:19.513Z,20.44
2022-12-17T04:56:19.494Z,20.42
2022-12-17T04:57:19.494Z,20.42
2022-12-17T04:58:19.472Z,20.41
2022-12-17T04:59:19.434Z,20.41
2022-12-17T05:00:19.505Z,20.41
2022-12-17T05:01:19.511Z,20.40
2022-12-17T05:02:19.531Z,20.41
2022-12-17T05:03:19.639Z,20.41
2022-12-17T05:04:19.414Z,20.41
2022-12-17T05:05:19.465Z,20.40
2022-12-17T05:06:19.448Z,20.40
2022-12-17T05:07:19.791Z,20.42
2022-12-17T05:08:19.352Z,20.41
2022-12-17T05:09:20.200Z,20.40
2022-12-17T05:10:20.470Z,20.39
2022-12-17T05:11:21.291Z,20.40
2022-12-17T05:12:20.374Z,20.39
2022-12-17T05:13:20.695Z,20.39
2022-12-17T05:14:20.855Z,20.38
2022-12-17T05:15:19.898Z,20.38
2022-12-17T05:16:20.481Z,20.39
2022-12-17T05:17:20.284Z,20.39
2022-12-17T05:18:20.004Z,20.38
2022-12-17T05:19:20.425Z,20.38
2022-12-17T05:20:19.227Z,20.37
2022-12-17T05:21:19.204Z,20.37
2022-12-17T05:22:19.180Z,20.38
2022-12-17T05:23:20.474Z,20.38
2022-12-17T05:24:21.178Z,20.36
2022-12-17T05:25:20.771Z,20.36
2022-12-17T05:26:20.329Z,20.36
2022-12-17T05:27:21.408Z,20.37
2022-12-17T05:28:22.254Z,20.37
2022-12-17T05:29:20.781Z,20.37
2022-12-17T05:30:19.140Z,20.36
2022-12-17T05:31:19.156Z,20.36
2022-12-17T05:32:19.110Z,20.37
2022-12-17T05:33:19.139Z,20.36
2022-12-17T05:34:19.138Z,20.37
2022-12-17T05:35:19.080Z,20.36
2022-12-17T05:36:19.049Z,20.36
2022-12-17T05:37:19.043Z,20.36
2022-12-17T05:38:19.065Z,20.33
2022-12-17T05:39:19.035Z,20.33
2022-12-17T05:40:19.215Z,20.33
2022-12-17T05:41:19.015Z,20.32
2022-12-17T05:42:19.010Z,20.32
2022-12-17T05:43:19.390Z,20.33
2022-12-17T05:44:18.986Z,20.33
2022-12-17T05:45:18.990Z,20.31
2022-12-17T05:46:19.240Z,20.29
2022-12-17T05:47:18.983Z,20.29
2022-12-17T05:48:19.114Z,20.28
2022-12-17T05:49:18.939Z,20.28
2022-12-17T05:50:18.953Z,20.28
2022-12-17T05:51:18.942Z,20.27
2022-12-17T05:52:18.963Z,20.26
2022-12-17T05:53:18.989Z,20.27
2022-12-17T05:54:19.150Z,20.26
2022-12-17T05:55:19.042Z,20.26
2022-12-17T05:56:19.156Z,20.26
2022-12-17T05:57:18.896Z,20.25
2022-12-17T05:58:18.920Z,20.27
2022-12-17T05:59:18.957Z,20.26
2022-12-17T06:00:18.945Z,20.26
2022-12-17T06:01:19.051Z,20.27
2022-12-17T06:02:18.925Z,20.28
2022-12-17T06:03:18.975Z,20.27
2022-12-17T06:04:18.941Z,20.26
2022-12-17T06:05:18.887Z,20.26
2022-12-17T06:06:19.029Z,20.27
2022-12-17T06:07:18.815Z,20.26
2022-12-17T06:08:18.851Z,20.26
2022-12-17T06:09:18.805Z,20.25
2022-12-17T06:10:18.822Z,20.23
2022-12-17T06:11:18.910Z,20.21
2022-12-17T06:12:18.865Z,20.21
2022-12-17T06:13:18.792Z,20.20
2022-12-17T06:14:18.778Z,20.21
2022-12-17T06:15:18.766Z,20.21
2022-12-17T06:16:18.792Z,20.20
2022-12-17T06:17:18.756Z,20.20
2022-12-17T06:18:18.760Z,20.20
2022-12-17T06:19:18.727Z,20.21
2022-12-17T06:20:18.721Z,20.20
2022-12-17T06:21:18.704Z,20.22
2022-12-17T06:22:18.710Z,20.20
2022-12-17T06:23:18.678Z,20.21
2022-12-17T06:24:18.720Z,20.21
2022-12-17T06:25:18.685Z,20.23
2022-12-17T06:26:18.694Z,20.25
2022-12-17T06:27:18.665Z,20.25
2022-12-17T06:28:18.725Z,20.25
2022-12-17T06:29:18.655Z,20.26
2022-12-17T06:30:19.263Z,20.26
2022-12-17T06:31:18.721Z,20.26
2022-12-17T06:32:18.725Z,20.21
2022-12-17T06:33:18.629Z,20.22
2022-12-17T06:34:18.633Z,20.21
2022-12-17T06:35:18.684Z,20.23
2022-12-17T06:36:22.505Z,20.37
2022-12-17T06:37:18.581Z,20.39
2022-12-17T06:38:18.657Z,20.40
2022-12-17T06:39:18.594Z,20.47
2022-12-17T06:40:19.465Z,20.57
2022-12-17T06:41:18.549Z,20.56
2022-12-17T06:42:18.562Z,20.58
2022-12-17T06:43:19.022Z,20.65
2022-12-17T06:44:18.504Z,20.69
2022-12-17T06:45:18.482Z,20.71
2022-12-17T06:46:18.565Z,20.72
2022-12-17T06:47:18.513Z,20.72
2022-12-17T06:48:18.481Z,20.74
2022-12-17T06:49:18.465Z,20.76
2022-12-17T06:50:18.602Z,20.78
2022-12-17T06:51:18.448Z,20.82
2022-12-17T06:52:18.423Z,20.83
2022-12-17T06:53:18.413Z,20.85
2022-12-17T06:54:18.505Z,20.88
2022-12-17T06:55:18.388Z,20.91
2022-12-17T06:56:18.365Z,20.95
2022-12-17T06:57:18.318Z,20.98
2022-12-17T06:58:18.397Z,21.00
2022-12-17T06:59:18.283Z,21.03
2022-12-17T07:00:18.268Z,21.08
2022-12-17T07:01:18.372Z,21.12
2022-12-17T07:02:18.465Z,21.15
2022-12-17T07:03:18.366Z,21.19
2022-12-17T07:04:18.217Z,21.23
2022-12-17T07:05:18.151Z,21.26
2022-12-17T07:06:18.259Z,21.30
2022-12-17T07:07:18.117Z,21.33
2022-12-17T07:08:18.106Z,21.35
2022-12-17T07:09:18.093Z,21.39
2022-12-17T07:10:18.045Z,21.40
2022-12-17T07:11:18.003Z,21.41
2022-12-17T07:12:18.027Z,21.44
2022-12-17T07:13:17.959Z,21.46
2022-12-17T07:14:17.955Z,21.49
2022-12-17T07:15:17.945Z,21.50
2022-12-17T07:16:17.985Z,21.53
2022-12-17T07:17:17.873Z,21.54
2022-12-17T07:18:17.814Z,21.56
2022-12-17T07:19:20.419Z,21.57
2022-12-17T07:20:17.795Z,21.57
2022-12-17T07:21:17.724Z,21.60
2022-12-17T07:22:17.713Z,21.61
2022-12-17T07:23:17.665Z,21.63
2022-12-17T07:24:17.767Z,21.63
2022-12-17T07:25:17.614Z,21.64
2022-12-17T07:26:17.579Z,21.64
2022-12-17T07:27:17.535Z,21.65
2022-12-17T07:28:17.541Z,21.64
2022-12-17T07:29:18.468Z,21.64
2022-12-17T07:30:17.450Z,21.65
2022-12-17T07:31:17.501Z,21.66
2022-12-17T07:32:17.424Z,21.67
2022-12-17T07:33:17.378Z,21.67
2022-12-17T07:34:17.517Z,21.67
2022-12-17T07:35:17.305Z,21.67
2022-12-17T07:36:17.424Z,21.67
2022-12-17T07:37:20.486Z,21.68
2022-12-17T07:38:17.237Z,21.66
2022-12-17T07:39:17.274Z,21.67
2022-12-17T07:40:17.172Z,21.68
2022-12-17T07:41:17.280Z,21.68
2022-12-17T07:42:17.122Z,21.69
2022-12-17T07:43:17.073Z,21.68
2022-12-17T07:44:17.064Z,21.68
2022-12-17T07:45:17.005Z,21.68
2022-12-17T07:46:17.106Z,21.69
2022-12-17T07:47:17.013Z,21.68
2022-12-17T07:48:16.953Z,21.67
2022-12-17T07:49:20.113Z,21.69
2022-12-17T07:50:17.909Z,21.68
2022-12-17T07:51:16.877Z,21.69
2022-12-17T07:52:16.835Z,21.70
2022-12-17T07:53:16.806Z,21.70
2022-12-17T07:54:16.795Z,21.70
2022-12-17T07:55:18.309Z,21.70
2022-12-17T07:56:16.712Z,21.69
2022-12-17T07:57:17.288Z,21.70
2022-12-17T07:58:16.645Z,21.71
2022-12-17T07:59:16.615Z,21.72
2022-12-17T08:00:16.572Z,21.72
2022-12-17T08:01:16.629Z,21.72
2022-12-17T08:02:16.869Z,21.72
2022-12-17T08:03:16.521Z,21.73
2022-12-17T08:04:16.494Z,21.74
2022-12-17T08:05:16.427Z,21.73
2022-12-17T08:06:16.413Z,21.72
2022-12-17T08:07:16.372Z,21.72
2022-12-17T08:08:16.397Z,21.72
2022-12-17T08:09:16.305Z,21.71
2022-12-17T08:10:16.539Z,21.71
2022-12-17T08:11:16.251Z,21.72
2022-12-17T08:12:16.255Z,21.72
2022-12-17T08:13:16.283Z,21.74
2022-12-17T08:14:16.389Z,21.73
2022-12-17T08:15:16.237Z,21.75
2022-12-17T08:16:16.204Z,21.75
2022-12-17T08:17:16.089Z,21.76
2022-12-17T08:18:17.463Z,21.75
2022-12-17T08:19:16.020Z,21.74
2022-12-17T08:20:16.039Z,21.75
2022-12-17T08:21:15.984Z,21.75
2022-12-17T08:22:15.946Z,21.77
2022-12-17T08:23:15.956Z,21.77
2022-12-17T08:24:15.902Z,21.77
2022-12-17T08:25:15.838Z,21.78
2022-12-17T08:26:15.829Z,21.77
2022-12-17T08:27:15.780Z,21.77
2022-12-17T08:28:48.492Z,21.78
2022-12-17T08:29:16.867Z,21.77
2022-12-17T08:30:15.721Z,21.79
2022-12-17T08:31:15.761Z,21.80
2022-12-17T08:32:15.654Z,21.79
2022-12-17T08:33:15.652Z,21.79
2022-12-17T08:34:15.715Z,21.78
2022-12-17T08:35:15.592Z,21.77
2022-12-17T08:36:15.611Z,21.76
2022-12-17T08:37:15.539Z,21.75
2022-12-17T08:38:15.479Z,21.74
2022-12-17T08:39:15.464Z,21.74
2022-12-17T08:40:15.425Z,21.72
2022-12-17T08:41:15.399Z,21.73
2022-12-17T08:42:15.385Z,21.72
2022-12-17T08:43:15.370Z,21.72
2022-12-17T08:44:15.333Z,21.71
2022-12-17T08:45:15.312Z,21.71
2022-12-17T08:46:15.331Z,21.71
2022-12-17T08:47:15.300Z,21.71
2022-12-17T08:48:15.225Z,21.71
2022-12-17T08:49:15.224Z,21.70
2022-12-17T08:50:15.215Z,21.68
2022-12-17T08:51:15.194Z,21.67
2022-12-17T08:52:15.124Z,21.64
2022-12-17T08:53:15.116Z,21.63
2022-12-17T08:54:15.093Z,21.61
2022-12-17T08:55:15.113Z,21.60
2022-12-17T08:56:15.037Z,21.58
2022-12-17T08:57:27.126Z,21.58
2022-12-17T08:58:16.046Z,21.59
2022-12-17T08:59:15.187Z,21.58
2022-12-17T09:00:14.970Z,21.57
2022-12-17T09:01:15.018Z,21.55
2022-12-17T09:02:15.176Z,21.55
2022-12-17T09:03:15.016Z,21.53
2022-12-17T09:04:14.898Z,21.51
2022-12-17T09:05:14.813Z,21.49
2022-12-17T09:06:15.125Z,21.47
2022-12-17T09:07:14.782Z,21.45
2022-12-17T09:08:14.786Z,21.46
2022-12-17T09:09:14.723Z,21.46
2022-12-17T09:10:14.888Z,21.46
2022-12-17T09:11:14.863Z,21.46
2022-12-17T09:12:15.199Z,21.48
2022-12-17T09:13:14.670Z,21.46
2022-12-17T09:14:14.657Z,21.46
2022-12-17T09:15:14.600Z,21.44
2022-12-17T09:16:14.653Z,21.41
2022-12-17T09:17:14.568Z,21.36
2022-12-17T09:18:14.809Z,21.35
2022-12-17T09:19:14.520Z,21.34
2022-12-17T09:20:14.548Z,21.28
2022-12-17T09:21:14.486Z,21.17
2022-12-17T09:22:14.555Z,21.05
2022-12-17T09:23:14.442Z,20.85
2022-12-17T09:24:14.504Z,20.55
2022-12-17T09:25:14.479Z,20.11
2022-12-17T09:26:14.484Z,19.79
2022-12-17T09:27:14.452Z,19.46
2022-12-17T09:28:14.512Z,19.15
2022-12-17T09:29:14.507Z,19.16
2022-12-17T09:30:14.679Z,19.30
2022-12-17T09:31:14.542Z,19.49
2022-12-17T09:32:14.580Z,19.67
2022-12-17T09:33:14.545Z,19.85
2022-12-17T09:34:14.552Z,19.99
2022-12-17T09:35:14.539Z,20.12
2022-12-17T09:36:14.585Z,20.21
2022-12-17T09:37:14.556Z,20.28
2022-12-17T09:38:14.585Z,20.33
2022-12-17T09:39:14.539Z,20.38
2022-12-17T09:40:14.569Z,20.43
2022-12-17T09:41:14.552Z,20.46
2022-12-17T09:42:14.537Z,20.49
2022-12-17T09:43:14.500Z,20.52
2022-12-17T09:44:14.527Z,20.54
2022-12-17T09:45:14.506Z,20.56
2022-12-17T09:46:14.583Z,20.57
2022-12-17T09:47:14.491Z,20.57
2022-12-17T09:48:14.524Z,20.57
2022-12-17T09:49:14.486Z,20.57
2022-12-17T09:50:14.509Z,20.57
2022-12-17T09:51:14.532Z,20.58
2022-12-17T09:52:14.494Z,20.57
2022-12-17T09:53:14.458Z,20.58
2022-12-17T09:54:14.507Z,20.57
2022-12-17T09:55:14.430Z,20.56
2022-12-17T09:56:14.461Z,20.57
2022-12-17T09:57:14.457Z,20.58
2022-12-17T09:58:14.444Z,20.57
2022-12-17T09:59:14.448Z,20.56
2022-12-17T10:00:14.532Z,20.57
2022-12-17T10:01:14.508Z,20.57
2022-12-17T10:02:14.614Z,20.56
2022-12-17T10:03:14.488Z,20.55
2022-12-17T10:04:14.413Z,20.55
2022-12-17T10:05:14.346Z,20.55
2022-12-17T10:06:19.222Z,20.55
2022-12-17T10:07:15.393Z,20.54
2022-12-17T10:08:14.334Z,20.55
2022-12-17T10:09:14.370Z,20.55
2022-12-17T10:10:14.317Z,20.56
2022-12-17T10:11:14.328Z,20.56
2022-12-17T10:12:14.293Z,20.57
2022-12-17T10:13:14.317Z,20.57
2022-12-17T10:14:14.317Z,20.57
2022-12-17T10:15:14.444Z,20.58
2022-12-17T10:16:14.564Z,20.57
2022-12-17T10:17:14.286Z,20.58
2022-12-17T10:18:14.260Z,20.59
2022-12-17T10:19:14.250Z,20.60
2022-12-17T10:20:14.219Z,20.61
2022-12-17T10:21:14.344Z,20.61
2022-12-17T10:22:14.247Z,20.61
2022-12-17T10:23:14.209Z,20.61
2022-12-17T10:24:18.556Z,20.59
2022-12-17T10:25:14.211Z,20.58
2022-12-17T10:26:14.210Z,20.58
2022-12-17T10:27:14.181Z,20.59
2022-12-17T10:28:14.160Z,20.60
2022-12-17T10:29:14.150Z,20.59
2022-12-17T10:30:14.137Z,20.60
2022-12-17T10:31:14.230Z,20.61
2022-12-17T10:32:14.089Z,20.62
2022-12-17T10:33:14.089Z,20.62
2022-12-17T10:34:14.046Z,20.61
2022-12-17T10:35:14.109Z,20.60
2022-12-17T10:36:14.058Z,20.59
2022-12-17T10:37:14.071Z,20.60
2022-12-17T10:38:14.045Z,20.59
2022-12-17T10:39:14.031Z,20.60
2022-12-17T10:40:13.993Z,20.59
2022-12-17T10:41:13.999Z,20.56
2022-12-17T10:42:13.968Z,20.56
2022-12-17T10:43:14.112Z,20.55
2022-12-17T10:44:13.971Z,20.55
2022-12-17T10:45:14.084Z,20.57
2022-12-17T10:46:13.986Z,20.56
2022-12-17T10:47:13.960Z,20.55
2022-12-17T10:48:13.939Z,20.54
2022-12-17T10:49:13.921Z,20.55
2022-12-17T10:50:13.915Z,20.55
2022-12-17T10:51:14.101Z,20.54
2022-12-17T10:52:14.090Z,20.56
2022-12-17T10:53:13.895Z,20.54
2022-12-17T10:54:13.857Z,20.54
2022-12-17T10:55:13.871Z,20.53
2022-12-17T10:56:13.838Z,20.54
2022-12-17T10:57:13.820Z,20.55
2022-12-17T10:58:13.842Z,20.55
2022-12-17T10:59:13.804Z,20.55
2022-12-17T11:00:13.794Z,20.55
2022-12-17T11:02:19.765Z,19.92
2022-12-17T11:03:19.608Z,19.45
2022-12-17T11:05:14.804Z,19.46
2022-12-17T11:06:14.772Z,19.61
2022-12-17T11:07:14.736Z,19.75
2022-12-17T11:08:14.669Z,19.85
2022-12-17T11:09:14.758Z,19.94
2022-12-17T11:10:14.702Z,20.01
2022-12-17T11:11:14.550Z,20.08
2022-12-17T11:12:14.546Z,20.14
2022-12-17T11:13:14.455Z,20.19
2022-12-17T11:14:14.405Z,20.25
2022-12-17T11:15:14.431Z,20.29
2022-12-17T11:16:14.326Z,20.33
2022-12-17T11:17:14.223Z,20.39
2022-12-17T11:18:14.112Z,20.42
2022-12-17T11:19:14.078Z,20.47
2022-12-17T11:20:14.077Z,20.53
2022-12-17T11:21:14.136Z,20.58
2022-12-17T11:22:14.050Z,20.65
2022-12-17T11:23:13.813Z,20.71
2022-12-17T11:24:17.703Z,20.75
2022-12-17T11:25:14.809Z,20.80
2022-12-17T11:26:13.601Z,20.85
2022-12-17T11:27:13.570Z,20.90
2022-12-17T11:28:13.560Z,20.94
2022-12-17T11:29:13.452Z,20.99
2022-12-17T11:30:13.496Z,21.04
2022-12-17T11:31:13.414Z,21.08
2022-12-17T11:32:13.228Z,21.12
2022-12-17T11:33:13.187Z,21.17
2022-12-17T11:34:13.054Z,21.22
2022-12-17T11:35:13.027Z,21.28
2022-12-17T11:36:12.940Z,21.32
2022-12-17T11:37:12.863Z,21.37
2022-12-17T11:38:12.777Z,21.40
2022-12-17T11:39:12.731Z,21.44
2022-12-17T11:40:12.791Z,21.48
2022-12-17T11:41:12.959Z,21.52
2022-12-17T11:42:12.483Z,21.55
2022-12-17T11:43:12.419Z,21.59
2022-12-17T11:44:12.331Z,21.61
2022-12-17T11:45:12.273Z,21.63
2022-12-17T11:46:12.245Z,21.65
2022-12-17T11:47:12.173Z,21.68
2022-12-17T11:48:12.030Z,21.68
2022-12-17T11:49:11.967Z,21.71
2022-12-17T11:50:11.876Z,21.71
2022-12-17T11:51:11.991Z,21.72
2022-12-17T11:52:11.709Z,21.74
2022-12-17T11:53:11.660Z,21.75
2022-12-17T11:54:11.591Z,21.76
2022-12-17T11:55:11.638Z,21.78
2022-12-17T11:56:11.719Z,21.78
2022-12-17T11:57:11.355Z,21.79
2022-12-17T11:58:11.385Z,21.79
2022-12-17T11:59:11.237Z,21.81
2022-12-17T12:00:11.113Z,21.82
2022-12-17T12:01:11.243Z,21.82
2022-12-17T12:02:11.151Z,21.84
2022-12-17T12:03:11.116Z,21.84
2022-12-17T12:04:10.832Z,21.84
2022-12-17T12:05:10.745Z,21.84
2022-12-17T12:06:10.690Z,21.83
2022-12-17T12:07:10.625Z,21.84
2022-12-17T12:08:10.501Z,21.83
2022-12-17T12:09:10.465Z,21.83
2022-12-17T12:10:10.495Z,21.81
2022-12-17T12:11:10.337Z,21.80
2022-12-17T12:12:10.222Z,21.77
2022-12-17T12:13:10.204Z,21.76
2022-12-17T12:14:10.096Z,21.75
2022-12-17T12:15:10.359Z,21.76
2022-12-17T12:16:10.156Z,21.75
2022-12-17T12:17:09.923Z,21.74
2022-12-17T12:18:09.871Z,21.74
2022-12-17T12:19:09.727Z,21.74
2022-12-17T12:20:09.633Z,21.74
2022-12-17T12:21:09.577Z,21.74
2022-12-17T12:22:09.459Z,21.74
2022-12-17T12:23:09.535Z,21.75
2022-12-17T12:24:09.321Z,21.74
2022-12-17T12:25:09.281Z,21.74
2022-12-17T12:26:09.169Z,21.75
2022-12-17T12:27:09.133Z,21.75
2022-12-17T12:28:09.114Z,21.74
2022-12-17T12:29:08.995Z,21.73
2022-12-17T12:30:08.850Z,21.74
2022-12-17T12:31:09.097Z,21.73
2022-12-17T12:32:08.710Z,21.74
2022-12-17T12:33:10.323Z,21.76
2022-12-17T12:34:08.555Z,21.76
2022-12-17T12:35:08.706Z,21.77
2022-12-17T12:36:08.439Z,21.77
2022-12-17T12:37:08.365Z,21.78
2022-12-17T12:38:08.328Z,21.78
2022-12-17T12:39:08.187Z,21.80
2022-12-17T12:40:08.106Z,21.82
2022-12-17T12:41:08.073Z,21.82
2022-12-17T12:42:07.970Z,21.82
2022-12-17T12:43:07.945Z,21.81
2022-12-17T12:44:07.828Z,21.81
2022-12-17T12:45:07.743Z,21.79
2022-12-17T12:46:07.815Z,21.78
2022-12-17T12:47:07.657Z,21.79
2022-12-17T12:48:07.555Z,21.80
2022-12-17T12:49:07.460Z,21.80
2022-12-17T12:50:07.354Z,21.80
2022-12-17T12:51:07.365Z,21.81
2022-12-17T12:52:07.189Z,21.82
2022-12-17T12:53:07.323Z,21.81
2022-12-17T12:54:07.038Z,21.81